VATSIM Germany Forum

Zurück   VATSIM Germany Forum > Community > Events > internationale Events

internationale Events Events außerhalb Deutschlands

Antwort
 
LinkBack Themen-Optionen Ansicht
Alt 2008-07-02, 17:46   #11 (permalink)
 
Benutzerbild von Rene Billiani
 
Registriert seit: 2005-02-10
Ort: LOWW
Alter: 64
Beiträge: 487
Danke erteilt: 228
475 Danksagungen in 122 Beiträgen erhalten
Standard LOVV Wetter für heute

Und hier das letzte Wetter Update für heute:

Zitat:
TAF LOWW 021400Z 021524 12005KT 9999 FEW050 TX30/15Z TN21/24Z PROB40
TEMPO 1517 16010G20KT FEW050 FEW060CB SCT300
BECMG 1719 CAVOK


TAF LOWG 021400Z 021524 VRB02KT CAVOK TX27/15Z TN21/24Z
TEMPO 1518 15007KT 9999 SCT060 FEW060CB


TAF LOWK 021400Z 021524 VRB02KT 9999 FEW070 TX24/17Z TN19/24Z PROB30
TEMPO 1518 VRB10G25KT TS FEW060CB BKN080


TAF LOWI 021400Z 021524 09008KT 9999 FEW070TCU SCT080 TX26/15Z TN18/24Z
TEMPO 1519 VRB15G25KT -TSRA FEW060CB BKN080
BECMG 1921 VRB02KT FEW060


TAF LOWS 021400Z 021524 06005KT 9999 FEW045 SCT050 TX27/15Z TN19/24Z
TEMPO 1520 29015G25KT 4500 TSRA FEW025 SCT045CB BKN060
BECMG 1921 15005KT
BECMG 2123 CAVOK

TAF LOWL 021400Z 021524 10008KT 9999 FEW060CB TX29/15Z TN20/24Z PROB30
TEMPO 1517 4000 TSRA SCT050CB BKN060
BECMG 1719 09004KT CAVOK
See you in the Skys!
__________________
Rene Billiani ist offline   Mit Zitat antworten
Alt 2008-07-02, 18:07   #12 (permalink)
 
Registriert seit: 2008-05-28
Ort: EDGG
Beiträge: 128
Danke erteilt: 52
25 Danksagungen in 19 Beiträgen erhalten
Standard

Hi,

Österreich voll mit ATC...WOW...

würde gerne ne kleine Großglockner Tour machen...Leider gibt es keine Charts von Zell am See. Weder auf der neuen Austria Seite noch auf der SAG Seite (da sind die PDF's kaputt)...

Gibt es sonst wo noch welche?

Gruß Bastian
Bastian Sokolowski ist offline   Mit Zitat antworten
Alt 2008-07-02, 18:15   #13 (permalink)
 
Registriert seit: 2006-10-20
Beiträge: 516
Danke erteilt: 359
286 Danksagungen in 102 Beiträgen erhalten
Standard

Hier sind super charts für LOWZ:
Musst dich kostenlos anmelden

http://www.ead.eurocontrol.int/eadba...EAD136161D6B24

Liebe Grüße und viel Spaß heute!
__________________




Daniel Bauer ist offline   Mit Zitat antworten
Danksagungen
Alt 2008-07-02, 18:16   #14 (permalink)
 
Benutzerbild von Andreas Fuchs
 
Registriert seit: 2002-05-29
Alter: 43
Beiträge: 17.528
Danke erteilt: 11.183
23.008 Danksagungen in 6.286 Beiträgen erhalten
Standard

Zu lahm...
__________________
Without deviation from the norm, progress is not possible. Frank Zappa
Gruss, Andreas | VATSIM Supervisor
Regelmässig aktuelle Fotos bei Instagram

Andreas Fuchs ist offline   Mit Zitat antworten
Danksagungen
Alt 2008-07-02, 18:26   #15 (permalink)
 
Registriert seit: 2008-05-28
Ort: EDGG
Beiträge: 128
Danke erteilt: 52
25 Danksagungen in 19 Beiträgen erhalten
Standard

Stimmt...eurocontrol hatte ich ganz vergessen!

Danke!
Bastian Sokolowski ist offline   Mit Zitat antworten
Alt 2008-07-02, 22:08   #16 (permalink)
 
Registriert seit: 2006-10-20
Beiträge: 516
Danke erteilt: 359
286 Danksagungen in 102 Beiträgen erhalten
Standard

Greas euch,

Ein super spitzen Event! Danke an alle die LOWS ´gestopft voll´ gemacht haben.





Liebe Grüße ,
LOWS_TWR
__________________




Daniel Bauer ist offline   Mit Zitat antworten
Danksagungen
Alt 2008-07-02, 22:30   #17 (permalink)
 
Benutzerbild von Timm Rehberg
 
Registriert seit: 2005-10-26
Ort: Ba-Wü
Alter: 27
Beiträge: 5.482
Danke erteilt: 5.073
1.965 Danksagungen in 865 Beiträgen erhalten
Standard

Wow! Erster (!) Flug hinter mir, LOWW-LOWI als Austrian 1-Tango-Romeo, und bin wirklich beeindruckt! Als würde der VACC-Austria Staff den Kontrollern etwas bezahlen für diese super Qualität an ATC heute.

Lange nicht mehr so professionelen ATC Service gehabt. Tolle Übergänge, und schöööönnn viiiiiiiiiieeeelllll Verkehr
Bis gleich ...
Klagenfurter, ...
__________________
Gruß Timm Rehberg
Twitch Stream | V1 Simulations Blog
Timm Rehberg ist offline   Mit Zitat antworten
Alt 2008-07-02, 23:11   #18 (permalink)
 
Benutzerbild von Martin Werner
 
Registriert seit: 2006-05-04
Ort: 2,1nm östlich von LOAU
Beiträge: 165
Danke erteilt: 69
92 Danksagungen in 52 Beiträgen erhalten
Standard

Vielen Dank an alle Piloten - zu Spitzenzeiten hatten wir über 110 Piloten in Österreich und 17 ATC's online!

War eine Freude heute als Innsbruck Tower online zu sein - vielen Dank an alle Piloten die teilweise ausgeharrt haben bis ein Departure-Slot frei war!

Also dann, spätestens bis zum nächsten Weekly Wednesday bei der VACC Austria!
__________________
Martin WERNER - ATC und Bruchpilot (***592K)

Geändert von Martin Werner (2008-07-03 um 06:21 Uhr)
Martin Werner ist offline   Mit Zitat antworten
Alt 2008-07-02, 23:31   #19 (permalink)
 
Benutzerbild von Christopher Kuhs
 
Registriert seit: 2005-07-19
Ort: Krefeld
Alter: 35
Beiträge: 1.922
Danke erteilt: 2.185
4.519 Danksagungen in 1.389 Beiträgen erhalten
Standard

Zitat:
Zitat von Robert Graf Beitrag anzeigen
@Christopher: No prob, einfach um 2000 in LHSM sein, da fange ich mit PreFlight an. Gegen 2030 SPÄTESTENS möchte ich dann starten, um gegen 2130 in Linz einzuschweben. Cooler Avatar btw. MUUUH!
Sorry, leider wurde nix draus, das heutige Unwetter machte es bei gut 30°C nicht nur unerträglich warm, nein sogar das Internet ist Zeitweise ausgefallen ...
__________________
Gut Milch!
Die heilige Kuh
Christopher Kuhs ist offline   Mit Zitat antworten
Alt 2008-07-03, 00:34   #20 (permalink)
 
Registriert seit: 2005-01-09
Beiträge: 2.132
Danke erteilt: 1.000
809 Danksagungen in 501 Beiträgen erhalten
Standard

Auch mir als spontan eingesetzter LOWW_F_APP hat dieses Event Spaß gemacht! Vielen Dank an alle Piloten und natürlich auch an die ATC-Kollegen. Qualität bei diesem Event war sehr hoch und es war sehr schön mitanzusehen wie man mit manchen Piloten wunderbar arbeiten kann, sodass letztendlich supertolle Spacings rausschauten - ich sag nur KLM & BMI / RWY 16

Gute Nacht,
Michael
Michael Wöhry ist offline   Mit Zitat antworten
Danksagungen
Antwort

  VATSIM Germany Forum > Community > Events > internationale Events


Themen-Optionen
Ansicht

Forumregeln
Es ist dir nicht erlaubt, neue Themen zu verfassen.
Es ist dir nicht erlaubt, auf Beiträge zu antworten.
Es ist dir nicht erlaubt, Anhänge hochzuladen.
Es ist dir nicht erlaubt, deine Beiträge zu bearbeiten.

BB-Code ist an.
Smileys sind an.
[IMG] Code ist an.
HTML-Code ist aus.
Trackbacks are an
Pingbacks are an
Refbacks are an



Alle Zeitangaben in WEZ +2. Es ist jetzt 10:56 Uhr.


Powered by vBulletin® Version 3.8.4 (Deutsch)
Copyright ©2000 - 2019, Jelsoft Enterprises Ltd.
Template-Modifikationen durch TMS
© 2006 - 2018 vatsim-germany.org